Time;durP1;ratioP1;P1;durP2;ratioP2;P2;SDS_P1;SDS_P2;PMS_P1;PMS_P2;Temp;Humidity;BMP_temperature;BMP_pressure;BME280_temperature;BME280_humidity;BME280_pressure;Samples;Min_cycle;Max_cycle;Signal;HPM_P1;HPM_P2
2021/04/09 00:02:45;;;;;;;10.47;7.27;;;;;;;;;;5044979;28;20593;-74
2021/04/09 00:05:49;;;;;;;11.57;7.50;;;;;;;;;;5056204;28;20590;-74
2021/04/09 00:08:53;;;;;;;10.73;7.60;;;;;;;;;;5064775;28;20648;-74
2021/04/09 00:11:58;;;;;;;10.70;7.87;;;;;;;;;;5076661;28;20550;-75
2021/04/09 00:15:05;;;;;;;11.37;8.03;;;;;;;;;;5063477;28;20970;-74
2021/04/09 00:18:09;;;;;;;11.00;7.63;;;;;;;;;;5056467;28;20559;-75
2021/04/09 00:21:13;;;;;;;10.93;7.43;;;;;;;;;;5056356;28;20601;-75
2021/04/09 00:24:19;;;;;;;15.13;7.93;;;;;;;;;;5067145;28;20614;-74
2021/04/09 00:27:23;;;;;;;14.60;8.10;;;;;;;;;;5055692;28;21144;-75
2021/04/09 00:30:28;;;;;;;10.43;7.70;;;;;;;;;;5055938;28;20535;-75
2021/04/09 00:33:32;;;;;;;11.03;7.90;;;;;;;;;;5035010;28;20625;-74
2021/04/09 00:36:36;;;;;;;11.00;7.63;;;;;;;;;;5076328;28;20921;-75
2021/04/09 00:39:40;;;;;;;9.20;7.57;;;;;;;;;;5068085;28;20646;-74
2021/04/09 00:42:44;;;;;;;13.80;8.40;;;;;;;;;;5057824;28;20594;-74
2021/04/09 00:45:48;;;;;;;11.13;8.07;;;;;;;;;;5075029;28;21139;-74
2021/04/09 00:48:52;;;;;;;10.87;7.90;;;;;;;;;;5075006;28;20617;-75
2021/04/09 00:51:57;;;;;;;10.83;7.83;;;;;;;;;;5063814;28;20542;-75
2021/04/09 00:55:03;;;;;;;12.77;8.27;;;;;;;;;;5035200;28;20638;-75
2021/04/09 00:58:07;;;;;;;13.90;7.70;;;;;;;;;;5035694;28;20599;-74
2021/04/09 01:01:12;;;;;;;14.63;8.37;;;;;;;;;;5073846;28;20586;-74
2021/04/09 01:04:16;;;;;;;9.57;7.73;;;;;;;;;;5060999;28;20587;-74
2021/04/09 01:07:20;;;;;;;10.83;7.90;;;;;;;;;;5055542;28;20543;-75
2021/04/09 01:10:24;;;;;;;9.30;7.37;;;;;;;;;;5043450;28;20551;-74
2021/04/09 01:13:29;;;;;;;8.43;7.23;;;;;;;;;;5066632;28;20963;-74
2021/04/09 01:16:48;;;;;;;11.83;7.90;;;;;;;;;;5076278;28;20526;-75
2021/04/09 01:20:26;;;;;;;11.60;8.20;;;;;;;;;;5074556;28;20645;-74
2021/04/09 01:24:01;;;;;;;9.37;7.10;;;;;;;;;;5056829;28;20582;-74
2021/04/09 01:27:56;;;;;;;12.87;8.83;;;;;;;;;;5075668;28;20538;-75
2021/04/09 01:31:26;;;;;;;11.07;7.30;;;;;;;;;;5054573;28;20543;-75
2021/04/09 01:34:38;;;;;;;11.03;8.07;;;;;;;;;;5073010;28;20629;-74
2021/04/09 01:38:04;;;;;;;11.07;8.47;;;;;;;;;;5070608;28;20590;-74
2021/04/09 01:41:11;;;;;;;11.07;7.90;;;;;;;;;;5055213;28;20550;-75
2021/04/09 01:44:17;;;;;;;10.80;7.53;;;;;;;;;;5071544;28;20617;-75
2021/04/09 01:47:24;;;;;;;13.13;8.53;;;;;;;;;;5074899;28;20551;-75
2021/04/09 01:50:31;;;;;;;13.17;8.87;;;;;;;;;;5075241;28;20538;-75
2021/04/09 01:53:38;;;;;;;11.47;8.20;;;;;;;;;;5062648;28;20591;-74
2021/04/09 01:56:45;;;;;;;10.53;8.50;;;;;;;;;;5054988;28;20576;-74
2021/04/09 01:59:50;;;;;;;11.90;8.00;;;;;;;;;;5054824;28;20618;-75
2021/04/09 02:02:55;;;;;;;11.87;8.20;;;;;;;;;;5049250;28;20585;-74
2021/04/09 02:06:00;;;;;;;11.77;8.80;;;;;;;;;;5073334;28;20610;-74
2021/04/09 02:09:05;;;;;;;10.30;8.10;;;;;;;;;;5074227;28;20960;-75
2021/04/09 02:12:11;;;;;;;12.20;8.10;;;;;;;;;;5073589;28;20597;-74
2021/04/09 02:15:18;;;;;;;11.50;8.40;;;;;;;;;;5054178;28;21124;-75
2021/04/09 02:18:24;;;;;;;12.00;7.90;;;;;;;;;;5042066;28;20618;-75
2021/04/09 02:21:32;;;;;;;12.33;7.70;;;;;;;;;;5054325;28;20606;-74
2021/04/09 02:24:36;;;;;;;10.47;7.77;;;;;;;;;;5022310;28;20528;-75
2021/04/09 02:27:44;;;;;;;11.00;7.13;;;;;;;;;;5054682;28;20946;-74
2021/04/09 02:31:02;;;;;;;11.03;7.73;;;;;;;;;;5073927;28;20543;-75
2021/04/09 02:34:06;;;;;;;11.40;8.13;;;;;;;;;;5057263;28;20599;-74
2021/04/09 02:37:12;;;;;;;11.17;7.83;;;;;;;;;;5054372;28;20539;-75
2021/04/09 02:40:24;;;;;;;10.53;8.00;;;;;;;;;;5053865;28;20634;-75
2021/04/09 02:43:30;;;;;;;12.97;8.90;;;;;;;;;;5052542;28;20591;-74
2021/04/09 02:46:48;;;;;;;10.30;7.70;;;;;;;;;;5041997;28;20531;-75
2021/04/09 02:50:12;;;;;;;10.47;7.13;;;;;;;;;;5053000;28;20618;-75
2021/04/09 02:53:24;;;;;;;12.30;7.43;;;;;;;;;;5059848;28;20590;-74
2021/04/09 02:56:29;;;;;;;11.87;8.30;;;;;;;;;;5073251;28;21298;-74
2021/04/09 02:59:34;;;;;;;12.30;7.70;;;;;;;;;;5073690;28;20632;-74
2021/04/09 03:02:39;;;;;;;9.80;7.43;;;;;;;;;;5061319;28;20578;-74
2021/04/09 03:05:45;;;;;;;12.23;8.17;;;;;;;;;;5072861;28;20534;-75
2021/04/09 03:08:49;;;;;;;10.80;7.73;;;;;;;;;;5073090;28;21260;-74
2021/04/09 03:11:53;;;;;;;10.50;7.53;;;;;;;;;;5071352;28;20598;-74
2021/04/09 03:14:58;;;;;;;12.27;7.50;;;;;;;;;;5053377;28;20657;-75
2021/04/09 03:18:05;;;;;;;10.10;7.20;;;;;;;;;;5059129;28;20621;-74
2021/04/09 03:21:09;;;;;;;11.80;7.50;;;;;;;;;;5073192;28;20542;-75
2021/04/09 03:24:13;;;;;;;10.00;7.83;;;;;;;;;;5052372;28;20574;-74
2021/04/09 03:27:17;;;;;;;12.10;7.40;;;;;;;;;;5052868;28;20551;-75
2021/04/09 03:30:23;;;;;;;12.97;8.80;;;;;;;;;;5064651;28;20633;-74
2021/04/09 03:33:27;;;;;;;12.03;9.00;;;;;;;;;;5081145;22;20629;-77
2021/04/09 03:36:31;;;;;;;16.00;9.60;;;;;;;;;;5034359;28;20634;-78
2021/04/09 03:39:36;;;;;;;13.67;9.50;;;;;;;;;;5035875;28;20629;-77
2021/04/09 03:42:40;;;;;;;15.83;10.17;;;;;;;;;;5068555;28;20578;-78
2021/04/09 03:45:44;;;;;;;13.57;8.93;;;;;;;;;;5057606;28;20598;-77
2021/04/09 03:48:48;;;;;;;12.90;8.70;;;;;;;;;;5064512;28;20648;-76
2021/04/09 03:51:52;;;;;;;10.03;7.63;;;;;;;;;;5071693;28;20597;-77
2021/04/09 03:54:56;;;;;;;10.00;7.00;;;;;;;;;;5060769;28;20589;-77
2021/04/09 03:58:00;;;;;;;12.03;7.10;;;;;;;;;;5054695;28;20632;-77
2021/04/09 04:01:04;;;;;;;10.23;7.30;;;;;;;;;;5065546;28;20934;-77
2021/04/09 04:04:08;;;;;;;12.50;7.40;;;;;;;;;;5041157;28;20543;-78
2021/04/09 04:07:13;;;;;;;11.93;7.10;;;;;;;;;;5058569;28;20594;-78
2021/04/09 04:10:17;;;;;;;11.60;7.03;;;;;;;;;;5060120;28;20645;-77
2021/04/09 04:13:22;;;;;;;16.07;6.70;;;;;;;;;;5072413;28;20542;-77
2021/04/09 04:16:27;;;;;;;10.67;7.07;;;;;;;;;;5060598;28;20586;-77
2021/04/09 04:19:31;;;;;;;11.03;6.67;;;;;;;;;;5071646;28;20645;-77
2021/04/09 04:22:35;;;;;;;10.10;6.37;;;;;;;;;;5068279;28;20614;-77
2021/04/09 04:25:40;;;;;;;10.63;6.57;;;;;;;;;;5059425;28;20583;-71
2021/04/09 04:28:44;;;;;;;7.37;6.10;;;;;;;;;;5053058;28;21219;-72
2021/04/09 04:31:49;;;;;;;9.07;6.70;;;;;;;;;;5060484;28;20941;-72
2021/04/09 04:34:53;;;;;;;8.40;6.33;;;;;;;;;;5052627;28;20633;-72
2021/04/09 04:37:59;;;;;;;7.83;5.97;;;;;;;;;;5039731;28;21191;-72
2021/04/09 04:41:04;;;;;;;11.27;5.90;;;;;;;;;;5070879;28;20953;-72
2021/04/09 04:44:22;;;;;;;9.10;6.53;;;;;;;;;;5071399;28;20617;-72
2021/04/09 04:47:29;;;;;;;10.80;6.70;;;;;;;;;;5071718;28;20547;-71
2021/04/09 04:50:37;;;;;;;10.67;6.43;;;;;;;;;;5034782;28;20535;-71
2021/04/09 04:53:44;;;;;;;9.43;6.60;;;;;;;;;;5036192;28;20540;-71
2021/04/09 04:56:48;;;;;;;10.77;6.30;;;;;;;;;;5074955;28;20614;-71
2021/04/09 04:59:52;;;;;;;9.73;6.20;;;;;;;;;;5072636;28;21223;-71
2021/04/09 05:02:57;;;;;;;8.93;6.17;;;;;;;;;;5054827;28;20618;-71
2021/04/09 05:06:01;;;;;;;9.77;6.90;;;;;;;;;;5055822;28;20590;-72
2021/04/09 05:09:06;;;;;;;10.57;6.83;;;;;;;;;;5054636;28;20630;-72
2021/04/09 05:12:10;;;;;;;10.57;7.13;;;;;;;;;;5035522;28;20552;-71
2021/04/09 05:15:15;;;;;;;10.73;7.27;;;;;;;;;;5035623;28;20603;-72
2021/04/09 05:18:19;;;;;;;10.77;8.00;;;;;;;;;;5040497;28;20642;-73
2021/04/09 05:21:24;;;;;;;7.20;5.93;;;;;;;;;;5055992;28;20625;-72
2021/04/09 05:24:28;;;;;;;8.60;5.90;;;;;;;;;;5034717;28;20595;-73
2021/04/09 05:27:32;;;;;;;6.73;5.37;;;;;;;;;;5065437;28;20952;-72
2021/04/09 05:30:39;;;;;;;7.07;5.80;;;;;;;;;;5075437;28;20534;-72
2021/04/09 05:38:51;;;;;;;9.23;6.70;;;;;;;;;;5038310;28;20552;-72
2021/04/09 05:41:55;;;;;;;10.93;6.40;;;;;;;;;;5064078;28;20961;-73
2021/04/09 05:44:59;;;;;;;12.07;6.03;;;;;;;;;;5050840;28;20925;-73
2021/04/09 05:48:07;;;;;;;6.33;5.00;;;;;;;;;;5054238;28;20574;-72
2021/04/09 05:51:11;;;;;;;9.60;5.47;;;;;;;;;;5057337;28;20590;-78
2021/04/09 05:54:15;;;;;;;7.93;5.73;;;;;;;;;;5069541;28;20610;-78
2021/04/09 05:57:20;;;;;;;7.60;5.60;;;;;;;;;;5077516;28;20621;-78
2021/04/09 06:00:24;;;;;;;7.10;5.00;;;;;;;;;;5061007;28;20594;-78
2021/04/09 06:03:29;;;;;;;9.20;6.40;;;;;;;;;;5038410;28;20536;-78
2021/04/09 06:06:40;;;;;;;8.97;6.07;;;;;;;;;;5035121;28;21137;-78
2021/04/09 06:09:52;;;;;;;11.50;6.70;;;;;;;;;;5043213;28;21001;-72
2021/04/09 06:12:56;;;;;;;11.87;6.37;;;;;;;;;;5054274;28;20594;-72
2021/04/09 06:16:00;;;;;;;8.07;4.73;;;;;;;;;;5034813;28;20576;-72
2021/04/09 06:19:05;;;;;;;9.10;5.07;;;;;;;;;;5034246;28;20627;-71
2021/04/09 06:22:09;;;;;;;6.80;4.80;;;;;;;;;;5036745;28;20540;-72
2021/04/09 06:25:14;;;;;;;7.43;4.70;;;;;;;;;;5033380;28;21086;-72
2021/04/09 06:28:18;;;;;;;8.40;4.77;;;;;;;;;;5051423;28;20626;-72
2021/04/09 06:31:22;;;;;;;5.67;4.00;;;;;;;;;;5054273;28;20547;-72
2021/04/09 06:34:26;;;;;;;5.50;4.63;;;;;;;;;;5054067;28;20618;-73
2021/04/09 06:37:31;;;;;;;5.43;4.20;;;;;;;;;;5063945;28;20629;-72
2021/04/09 06:40:35;;;;;;;5.20;4.10;;;;;;;;;;5044674;28;20544;-72
2021/04/09 06:43:39;;;;;;;7.47;4.43;;;;;;;;;;5049594;28;20574;-72
2021/04/09 06:46:44;;;;;;;9.67;4.30;;;;;;;;;;5041696;28;20535;-72
2021/04/09 06:49:50;;;;;;;6.17;3.93;;;;;;;;;;5053823;28;20622;-72
2021/04/09 06:52:55;;;;;;;6.50;4.30;;;;;;;;;;5053809;28;20602;-72
2021/04/09 06:56:00;;;;;;;13.50;4.33;;;;;;;;;;5053567;28;20626;-73
2021/04/09 06:59:05;;;;;;;5.10;3.87;;;;;;;;;;5053823;28;21215;-72
2021/04/09 07:02:15;;;;;;;4.70;3.80;;;;;;;;;;5041431;28;20559;-72
2021/04/09 07:05:20;;;;;;;7.23;3.90;;;;;;;;;;5053006;28;20180;-72
2021/04/09 07:08:26;;;;;;;4.30;3.20;;;;;;;;;;5052655;28;20208;-72
2021/04/09 07:11:30;;;;;;;5.67;3.40;;;;;;;;;;5052917;28;20176;-72
2021/04/09 07:14:54;;;;;;;4.70;3.27;;;;;;;;;;5053424;28;20200;-72
2021/04/09 07:17:58;;;;;;;7.20;3.70;;;;;;;;;;5052763;28;20184;-72
2021/04/09 07:21:18;;;;;;;3.93;3.43;;;;;;;;;;5052450;28;20183;-72
2021/04/09 07:24:22;;;;;;;4.90;3.30;;;;;;;;;;5052495;28;20185;-72
2021/04/09 07:27:26;;;;;;;3.60;3.23;;;;;;;;;;5053603;28;20168;-72
2021/04/09 07:30:31;;;;;;;8.33;3.63;;;;;;;;;;5053363;28;20527;-72
2021/04/09 07:33:52;;;;;;;7.53;3.97;;;;;;;;;;5052843;28;20203;-72
2021/04/09 07:37:13;;;;;;;9.40;3.90;;;;;;;;;;5053404;28;20666;-72
2021/04/09 07:40:22;;;;;;;6.07;3.17;;;;;;;;;;5052972;28;20219;-72
2021/04/09 07:43:36;;;;;;;4.53;3.33;;;;;;;;;;5053381;28;20200;-72
2021/04/09 07:47:07;;;;;;;13.03;2.60;;;;;;;;;;5030918;28;20180;-72
2021/04/09 07:50:12;;;;;;;7.00;2.80;;;;;;;;;;5052717;28;20220;-72
2021/04/09 07:53:19;;;;;;;4.13;2.70;;;;;;;;;;5060195;28;20187;-72
2021/04/09 07:56:23;;;;;;;3.43;2.70;;;;;;;;;;5052005;28;20212;-72
2021/04/09 07:59:38;;;;;;;5.47;2.63;;;;;;;;;;5052036;28;20220;-72
2021/04/09 08:02:42;;;;;;;4.40;2.50;;;;;;;;;;5052692;28;20185;-72
2021/04/09 08:06:03;;;;;;;7.00;2.53;;;;;;;;;;5052299;28;20184;-72
2021/04/09 08:09:07;;;;;;;5.30;2.50;;;;;;;;;;5053008;28;20694;-72
2021/04/09 08:12:25;;;;;;;6.87;2.20;;;;;;;;;;5052749;28;20200;-72
2021/04/09 08:15:32;;;;;;;6.00;3.17;;;;;;;;;;5052099;28;20177;-72
2021/04/09 08:18:37;;;;;;;3.20;2.07;;;;;;;;;;5040610;28;20670;-72
2021/04/09 08:21:51;;;;;;;4.50;2.43;;;;;;;;;;5052785;28;20627;-72
2021/04/09 08:24:55;;;;;;;3.07;2.10;;;;;;;;;;5053533;28;20540;-72
2021/04/09 08:28:00;;;;;;;6.43;2.43;;;;;;;;;;5056452;28;20184;-72
2021/04/09 08:31:05;;;;;;;3.17;2.43;;;;;;;;;;5056500;28;20193;-71
2021/04/09 08:34:12;;;;;;;4.13;2.67;;;;;;;;;;5055422;28;20287;-74
2021/04/09 08:37:16;;;;;;;3.50;2.57;;;;;;;;;;5055504;28;20204;-72
2021/04/09 08:40:21;;;;;;;3.33;2.37;;;;;;;;;;5056225;28;20208;-71
2021/04/09 08:43:26;;;;;;;4.30;2.77;;;;;;;;;;5055232;28;20176;-72
2021/04/09 08:46:30;;;;;;;3.00;2.63;;;;;;;;;;5056430;28;20177;-72
2021/04/09 08:49:34;;;;;;;7.70;6.83;;;;;;;;;;5056517;28;20219;-72
2021/04/09 08:52:45;;;;;;;5.53;4.40;;;;;;;;;;5056031;28;20184;-72
2021/04/09 08:55:55;;;;;;;14.67;4.13;;;;;;;;;;5055967;28;20188;-72
2021/04/09 08:58:59;;;;;;;3.90;2.67;;;;;;;;;;5055811;28;20212;-72
2021/04/09 09:02:17;;;;;;;6.17;2.60;;;;;;;;;;5055527;28;20181;-72
2021/04/09 09:05:23;;;;;;;7.37;2.87;;;;;;;;;;5055801;28;20180;-72
2021/04/09 09:08:43;;;;;;;4.23;2.60;;;;;;;;;;5053965;28;20216;-72
2021/04/09 09:11:49;;;;;;;9.03;5.80;;;;;;;;;;5056037;28;20196;-72
2021/04/09 09:14:53;;;;;;;3.97;2.40;;;;;;;;;;5065588;28;20187;-72
2021/04/09 09:17:57;;;;;;;5.50;2.97;;;;;;;;;;5075037;28;20570;-71
2021/04/09 09:21:05;;;;;;;3.40;2.13;;;;;;;;;;5075618;28;20630;-71
2021/04/09 09:24:23;;;;;;;4.40;1.93;;;;;;;;;;5060253;28;20192;-71
2021/04/09 09:27:52;;;;;;;3.70;2.40;;;;;;;;;;5050777;28;20180;-71
2021/04/09 09:30:57;;;;;;;3.33;2.03;;;;;;;;;;5055518;28;20177;-71
2021/04/09 09:34:16;;;;;;;4.60;1.90;;;;;;;;;;5058387;28;20203;-71
2021/04/09 09:37:27;;;;;;;4.10;1.83;;;;;;;;;;5059340;28;20566;-71
2021/04/09 09:40:41;;;;;;;3.10;1.80;;;;;;;;;;5075472;28;20183;-71
2021/04/09 09:43:45;;;;;;;2.17;1.77;;;;;;;;;;5072791;28;20195;-71
2021/04/09 09:47:02;;;;;;;5.93;2.07;;;;;;;;;;5075273;28;20172;-71
2021/04/09 09:50:20;;;;;;;2.83;1.90;;;;;;;;;;5046244;28;20224;-71
2021/04/09 09:53:54;;;;;;;2.73;2.07;;;;;;;;;;5035201;23;20272;-75
2021/04/09 09:57:19;;;;;;;2.70;1.80;;;;;;;;;;5022749;28;20221;-76
2021/04/09 10:00:38;;;;;;;4.97;3.07;;;;;;;;;;4998446;28;20189;-76
2021/04/09 10:03:43;;;;;;;60.40;38.20;;;;;;;;;;5005572;28;20190;-76
2021/04/09 10:06:54;;;;;;;22.17;13.63;;;;;;;;;;4990991;28;20201;-76
2021/04/09 10:09:58;;;;;;;149.03;86.57;;;;;;;;;;4995041;28;20233;-76
2021/04/09 10:13:19;;;;;;;9.27;5.27;;;;;;;;;;4995539;28;20189;-76
2021/04/09 10:16:25;;;;;;;3.80;1.97;;;;;;;;;;5014357;28;20178;-76
2021/04/09 10:19:29;;;;;;;49.40;30.17;;;;;;;;;;5005929;28;20217;-76
2021/04/09 10:22:33;;;;;;;43.47;27.90;;;;;;;;;;5014441;28;20209;-77
2021/04/09 10:25:38;;;;;;;16.27;10.23;;;;;;;;;;5014082;28;20550;-76
2021/04/09 10:28:42;;;;;;;6.17;3.93;;;;;;;;;;5008668;28;20227;-77
2021/04/09 10:31:47;;;;;;;9.93;3.83;;;;;;;;;;5014078;28;20178;-77
2021/04/09 10:34:52;;;;;;;5.57;3.97;;;;;;;;;;5005325;28;20184;-76
2021/04/09 10:38:13;;;;;;;9.20;4.97;;;;;;;;;;5022796;28;20214;-76
2021/04/09 10:41:32;;;;;;;4.00;2.67;;;;;;;;;;5013327;28;20203;-76
2021/04/09 10:44:37;;;;;;;5.83;3.03;;;;;;;;;;5013631;28;20526;-75
2021/04/09 10:47:42;;;;;;;4.33;3.03;;;;;;;;;;5013865;28;20186;-76
2021/04/09 10:50:50;;;;;;;2.93;2.10;;;;;;;;;;5011043;28;20198;-75
2021/04/09 10:53:55;;;;;;;6.83;3.10;;;;;;;;;;4971228;28;20665;-75
2021/04/09 10:57:00;;;;;;;4.77;1.90;;;;;;;;;;4998275;28;20554;-75
2021/04/09 11:00:07;;;;;;;6.67;3.47;;;;;;;;;;4994029;28;20222;-74
2021/04/09 11:03:12;;;;;;;2.80;1.87;;;;;;;;;;4994066;28;20645;-75
2021/04/09 11:06:19;;;;;;;6.27;2.33;;;;;;;;;;5001684;28;20201;-75
2021/04/09 11:09:42;;;;;;;4.70;2.00;;;;;;;;;;5000369;28;20217;-75
2021/04/09 11:12:47;;;;;;;3.67;1.93;;;;;;;;;;5012043;28;20636;-75
2021/04/09 11:15:55;;;;;;;6.60;2.17;;;;;;;;;;4982128;28;20182;-74
2021/04/09 11:19:00;;;;;;;3.33;2.27;;;;;;;;;;5002467;28;20221;-75
2021/04/09 11:22:07;;;;;;;3.23;1.70;;;;;;;;;;5003091;28;20550;-75
2021/04/09 11:25:11;;;;;;;15.37;3.00;;;;;;;;;;5006962;28;20197;-75
2021/04/09 11:28:24;;;;;;;5.33;2.37;;;;;;;;;;5011849;28;20517;-75
2021/04/09 11:31:28;;;;;;;3.83;3.03;;;;;;;;;;5013898;28;20763;-76
2021/04/09 11:34:42;;;;;;;3.53;2.20;;;;;;;;;;5012895;28;20197;-75
2021/04/09 11:37:47;;;;;;;3.47;2.33;;;;;;;;;;5012174;28;20205;-76
2021/04/09 11:40:52;;;;;;;4.43;2.30;;;;;;;;;;5013332;28;20201;-75
2021/04/09 11:43:57;;;;;;;4.80;1.90;;;;;;;;;;4992849;28;20182;-75
2021/04/09 11:47:25;;;;;;;3.23;1.97;;;;;;;;;;5012302;28;20190;-75
2021/04/09 11:50:29;;;;;;;3.87;1.77;;;;;;;;;;4993697;28;20225;-75
2021/04/09 11:53:34;;;;;;;3.17;1.77;;;;;;;;;;4993714;28;20206;-75
2021/04/09 11:56:43;;;;;;;2.67;1.63;;;;;;;;;;4994895;28;20660;-75
2021/04/09 11:59:48;;;;;;;5.70;2.00;;;;;;;;;;4997067;28;20214;-74
2021/04/09 12:03:04;;;;;;;3.37;1.83;;;;;;;;;;5007444;28;20189;-74
2021/04/09 12:06:14;;;;;;;3.63;1.90;;;;;;;;;;5016309;28;20652;-73
2021/04/09 12:09:18;;;;;;;8.23;2.17;;;;;;;;;;5017078;28;20210;-73
2021/04/09 12:12:24;;;;;;;4.83;2.20;;;;;;;;;;5017239;28;20182;-73
2021/04/09 12:15:30;;;;;;;11.07;2.60;;;;;;;;;;5016041;28;20178;-74
2021/04/09 12:18:34;;;;;;;7.87;2.07;;;;;;;;;;5016125;28;20229;-73
2021/04/09 12:21:38;;;;;;;5.93;2.03;;;;;;;;;;4996571;28;20202;-73
2021/04/09 12:24:43;;;;;;;4.13;2.23;;;;;;;;;;4997067;28;20198;-73
2021/04/09 12:27:48;;;;;;;4.60;2.20;;;;;;;;;;4997388;28;20196;-73
2021/04/09 12:30:52;;;;;;;2.03;1.67;;;;;;;;;;4997596;28;20617;-73
2021/04/09 12:33:57;;;;;;;2.90;1.73;;;;;;;;;;4997266;28;20182;-73
2021/04/09 12:37:02;;;;;;;3.33;2.57;;;;;;;;;;5014943;28;20200;-73
2021/04/09 12:40:07;;;;;;;3.50;2.40;;;;;;;;;;5015619;28;20213;-73
2021/04/09 12:43:11;;;;;;;4.70;1.87;;;;;;;;;;5016756;28;20173;-73
2021/04/09 12:46:16;;;;;;;3.40;2.00;;;;;;;;;;5015888;28;20633;-73
2021/04/09 12:49:21;;;;;;;3.43;1.80;;;;;;;;;;5016673;28;20577;-73
2021/04/09 12:52:25;;;;;;;7.60;2.40;;;;;;;;;;5015034;28;20688;-73
2021/04/09 12:55:29;;;;;;;2.87;1.90;;;;;;;;;;5016291;28;20201;-73
2021/04/09 12:58:33;;;;;;;3.43;1.70;;;;;;;;;;5016458;28;20228;-73
2021/04/09 13:01:38;;;;;;;3.17;2.17;;;;;;;;;;5016110;28;20541;-73
2021/04/09 13:04:42;;;;;;;7.23;2.00;;;;;;;;;;5005189;28;20198;-73
2021/04/09 13:07:46;;;;;;;3.37;1.80;;;;;;;;;;5010803;28;20193;-74
2021/04/09 13:10:50;;;;;;;8.97;2.33;;;;;;;;;;5007370;28;20548;-73
2021/04/09 13:13:56;;;;;;;3.47;2.03;;;;;;;;;;5005441;28;20186;-73
2021/04/09 13:17:00;;;;;;;6.80;2.40;;;;;;;;;;4996570;28;20186;-73
2021/04/09 13:20:06;;;;;;;5.40;2.27;;;;;;;;;;5008765;28;20213;-74
2021/04/09 13:23:10;;;;;;;7.23;2.20;;;;;;;;;;5011485;28;20198;-73
2021/04/09 13:26:14;;;;;;;6.30;1.83;;;;;;;;;;4995666;28;20630;-73
2021/04/09 13:29:18;;;;;;;2.70;1.90;;;;;;;;;;4995906;28;20210;-73
2021/04/09 13:32:22;;;;;;;2.93;2.10;;;;;;;;;;4997337;28;20185;-73
2021/04/09 13:35:26;;;;;;;3.50;2.13;;;;;;;;;;5015732;28;20185;-73
2021/04/09 13:38:31;;;;;;;4.77;2.30;;;;;;;;;;5015499;28;20229;-73
2021/04/09 13:41:35;;;;;;;4.37;2.10;;;;;;;;;;5000142;28;20190;-73
2021/04/09 13:44:39;;;;;;;5.07;2.20;;;;;;;;;;5012158;28;20644;-73
2021/04/09 13:47:43;;;;;;;2.90;2.00;;;;;;;;;;5015245;28;20193;-73
2021/04/09 13:50:48;;;;;;;7.43;2.43;;;;;;;;;;5003603;28;20636;-73
2021/04/09 13:53:52;;;;;;;2.73;2.00;;;;;;;;;;5005323;28;20213;-73
2021/04/09 13:56:56;;;;;;;6.80;2.90;;;;;;;;;;5015588;28;20181;-74
2021/04/09 14:00:01;;;;;;;10.13;4.67;;;;;;;;;;5010371;28;20226;-74
2021/04/09 14:03:04;;;;;;;6.17;2.43;;;;;;;;;;4995789;28;20186;-74
2021/04/09 14:06:09;;;;;;;6.73;2.00;;;;;;;;;;4995658;28;20182;-74
2021/04/09 14:09:13;;;;;;;3.03;2.03;;;;;;;;;;5001224;28;20217;-74
2021/04/09 14:12:17;;;;;;;8.77;3.67;;;;;;;;;;4995160;28;20181;-74
2021/04/09 14:15:22;;;;;;;3.17;2.20;;;;;;;;;;4995091;28;20641;-74
2021/04/09 14:18:35;;;;;;;5.07;2.13;;;;;;;;;;4994453;28;20225;-74
2021/04/09 14:21:39;;;;;;;3.97;2.33;;;;;;;;;;4995477;28;20178;-74
2021/04/09 14:24:43;;;;;;;8.53;2.23;;;;;;;;;;4997298;28;20186;-74
2021/04/09 14:27:49;;;;;;;8.33;2.50;;;;;;;;;;5014701;28;20177;-74
2021/04/09 14:30:57;;;;;;;3.80;2.07;;;;;;;;;;5014374;28;20173;-74
2021/04/09 14:34:02;;;;;;;6.40;2.00;;;;;;;;;;5014291;28;20198;-74
2021/04/09 14:37:07;;;;;;;3.90;2.00;;;;;;;;;;5014291;28;20181;-74
2021/04/09 14:40:14;;;;;;;7.90;2.13;;;;;;;;;;5014031;28;20727;-74
2021/04/09 14:43:18;;;;;;;3.13;2.00;;;;;;;;;;5014158;28;20181;-74
2021/04/09 14:46:22;;;;;;;4.70;2.10;;;;;;;;;;4993957;28;20206;-74
2021/04/09 14:49:27;;;;;;;4.07;2.30;;;;;;;;;;5005141;28;20213;-73
2021/04/09 14:52:31;;;;;;;2.87;2.20;;;;;;;;;;5003651;28;20205;-74
2021/04/09 14:55:36;;;;;;;3.67;1.90;;;;;;;;;;5012432;28;20192;-73
2021/04/09 14:58:40;;;;;;;4.60;2.20;;;;;;;;;;5012303;28;20225;-73
2021/04/09 15:01:44;;;;;;;3.03;1.93;;;;;;;;;;5013283;28;20193;-74
2021/04/09 15:04:49;;;;;;;3.60;1.90;;;;;;;;;;5003339;28;20522;-73
2021/04/09 15:07:53;;;;;;;3.03;2.30;;;;;;;;;;4994623;28;20202;-73
2021/04/09 15:10:58;;;;;;;4.90;2.30;;;;;;;;;;4994762;28;20189;-73
2021/04/09 15:14:02;;;;;;;6.07;1.90;;;;;;;;;;5002320;28;20190;-74
2021/04/09 15:17:05;;;;;;;5.93;1.97;;;;;;;;;;4994245;28;20182;-73
2021/04/09 15:20:13;;;;;;;3.87;1.73;;;;;;;;;;4999562;28;20216;-73
2021/04/09 15:23:17;;;;;;;3.70;2.00;;;;;;;;;;5008357;28;20190;-73
2021/04/09 15:26:21;;;;;;;3.83;2.00;;;;;;;;;;4994995;28;20187;-73
2021/04/09 15:29:26;;;;;;;5.47;2.30;;;;;;;;;;5013540;28;20556;-73
2021/04/09 15:32:31;;;;;;;2.23;1.77;;;;;;;;;;5013651;28;20675;-73
2021/04/09 15:35:35;;;;;;;8.07;5.17;;;;;;;;;;4993726;28;20649;-73
2021/04/09 15:38:45;;;;;;;3.60;3.07;;;;;;;;;;4997555;28;20225;-73
2021/04/09 15:41:56;;;;;;;5.17;2.70;;;;;;;;;;4972148;28;20542;-72
2021/04/09 15:45:00;;;;;;;4.27;2.30;;;;;;;;;;5012019;28;20197;-72
2021/04/09 15:48:05;;;;;;;5.07;2.20;;;;;;;;;;5012467;28;20526;-73
2021/04/09 15:51:09;;;;;;;13.47;2.93;;;;;;;;;;4999482;28;20186;-72
2021/04/09 15:54:15;;;;;;;7.07;2.67;;;;;;;;;;5005792;28;20209;-73
2021/04/09 15:57:19;;;;;;;13.73;7.83;;;;;;;;;;5053371;22;20227;-73
2021/04/09 16:00:23;;;;;;;24.73;11.77;;;;;;;;;;5036191;28;20219;-73
2021/04/09 16:03:28;;;;;;;22.63;14.77;;;;;;;;;;5032099;28;20187;-73
2021/04/09 16:06:32;;;;;;;18.93;12.03;;;;;;;;;;5032568;28;20674;-74
2021/04/09 16:09:36;;;;;;;7.97;2.83;;;;;;;;;;5046375;28;20231;-73
2021/04/09 16:12:41;;;;;;;7.97;3.83;;;;;;;;;;5045862;28;20554;-73
2021/04/09 16:15:45;;;;;;;20.57;9.33;;;;;;;;;;5045134;28;20184;-72
2021/04/09 16:18:50;;;;;;;9.00;5.20;;;;;;;;;;5044218;28;20228;-73
2021/04/09 16:21:54;;;;;;;45.03;4.17;;;;;;;;;;5032727;28;20192;-72
2021/04/09 16:24:58;;;;;;;4.80;2.50;;;;;;;;;;5042664;28;20199;-73
2021/04/09 16:28:02;;;;;;;6.60;2.50;;;;;;;;;;5044841;28;20524;-74
2021/04/09 16:31:07;;;;;;;7.73;3.77;;;;;;;;;;5048508;28;20188;-73
2021/04/09 16:34:11;;;;;;;5.33;3.87;;;;;;;;;;5052224;28;20192;-73
2021/04/09 16:37:15;;;;;;;6.20;2.93;;;;;;;;;;5052356;28;20184;-73
2021/04/09 16:40:20;;;;;;;5.27;2.67;;;;;;;;;;5032203;28;20229;-74
2021/04/09 16:43:24;;;;;;;5.80;3.43;;;;;;;;;;5032529;28;20200;-74
2021/04/09 16:46:29;;;;;;;7.07;2.67;;;;;;;;;;5035283;28;20204;-74
2021/04/09 16:49:34;;;;;;;5.90;3.67;;;;;;;;;;5053997;28;20207;-72
2021/04/09 16:52:38;;;;;;;9.83;4.93;;;;;;;;;;5036427;28;20513;-73
2021/04/09 16:55:43;;;;;;;11.80;6.43;;;;;;;;;;5044840;28;20196;-74
2021/04/09 16:58:48;;;;;;;12.73;6.33;;;;;;;;;;5042112;28;20224;-73
2021/04/09 17:01:52;;;;;;;6.83;5.97;;;;;;;;;;5036031;28;20181;-74
2021/04/09 17:04:56;;;;;;;11.43;7.93;;;;;;;;;;5035691;28;20180;-73
2021/04/09 17:08:00;;;;;;;10.23;6.20;;;;;;;;;;5041339;28;20184;-73
2021/04/09 17:11:04;;;;;;;5.40;3.23;;;;;;;;;;5038113;28;20648;-73
2021/04/09 17:14:08;;;;;;;6.70;3.40;;;;;;;;;;5034981;28;20185;-73
2021/04/09 17:17:13;;;;;;;5.53;3.40;;;;;;;;;;5045375;28;20200;-73
2021/04/09 17:20:18;;;;;;;5.07;2.43;;;;;;;;;;5055609;28;20220;-74
2021/04/09 17:23:22;;;;;;;4.80;2.17;;;;;;;;;;5049137;28;20200;-73
2021/04/09 17:26:26;;;;;;;9.70;2.10;;;;;;;;;;5052554;28;20196;-73
2021/04/09 17:29:31;;;;;;;3.83;1.87;;;;;;;;;;5034872;28;20239;-73
2021/04/09 17:32:35;;;;;;;6.00;2.20;;;;;;;;;;5048016;28;20200;-73
2021/04/09 17:35:39;;;;;;;11.90;2.67;;;;;;;;;;5035483;28;20185;-73
2021/04/09 17:38:43;;;;;;;4.97;2.10;;;;;;;;;;5047947;28;20223;-72
2021/04/09 17:41:48;;;;;;;6.50;2.57;;;;;;;;;;5055053;28;20173;-72
2021/04/09 17:44:52;;;;;;;7.80;2.03;;;;;;;;;;5054102;28;20180;-74
2021/04/09 17:47:56;;;;;;;2.90;1.87;;;;;;;;;;5038547;28;20200;-73
2021/04/09 17:51:00;;;;;;;3.97;2.13;;;;;;;;;;5054778;28;20176;-73
2021/04/09 17:54:04;;;;;;;4.63;2.07;;;;;;;;;;5036240;28;20517;-73
2021/04/09 17:57:10;;;;;;;3.53;2.00;;;;;;;;;;5033565;28;20200;-73
2021/04/09 18:00:15;;;;;;;3.90;2.10;;;;;;;;;;5034740;28;20228;-73
2021/04/09 18:03:19;;;;;;;3.87;1.70;;;;;;;;;;5034234;28;20185;-73
2021/04/09 18:06:23;;;;;;;4.43;1.80;;;;;;;;;;5049422;28;20199;-73
2021/04/09 18:09:27;;;;;;;3.23;1.50;;;;;;;;;;5052942;28;20223;-73
2021/04/09 18:12:32;;;;;;;3.13;1.60;;;;;;;;;;5053973;28;20197;-74
2021/04/09 18:15:36;;;;;;;4.20;1.80;;;;;;;;;;5054570;28;20523;-74
2021/04/09 18:18:40;;;;;;;5.20;2.03;;;;;;;;;;5043841;28;20228;-73
2021/04/09 18:21:44;;;;;;;3.37;1.63;;;;;;;;;;5033377;28;20185;-73
2021/04/09 18:24:49;;;;;;;3.20;1.90;;;;;;;;;;5034861;28;20201;-73
2021/04/09 18:27:54;;;;;;;4.80;2.10;;;;;;;;;;5040125;28;20185;-73
2021/04/09 18:31:00;;;;;;;4.03;1.90;;;;;;;;;;5053450;28;20176;-75
2021/04/09 18:34:05;;;;;;;3.50;1.53;;;;;;;;;;5053972;28;20184;-75
2021/04/09 18:37:08;;;;;;;3.57;1.53;;;;;;;;;;5033982;28;20189;-75
2021/04/09 18:40:13;;;;;;;3.43;1.67;;;;;;;;;;5043262;28;20224;-75